createdAt,value
2018-12-15T00:01:10.849Z,42.87
2018-12-15T00:03:39.322Z,44.47
2018-12-15T00:06:07.802Z,45.87
2018-12-15T00:08:36.266Z,43.20
2018-12-15T00:11:04.737Z,43.47
2018-12-15T00:13:33.394Z,45.57
2018-12-15T00:16:01.796Z,41.20
2018-12-15T00:18:30.202Z,42.53
2018-12-15T00:20:58.662Z,37.80
2018-12-15T00:23:27.051Z,42.80
2018-12-15T00:25:55.728Z,42.03
2018-12-15T00:28:24.134Z,38.63
2018-12-15T00:30:52.600Z,41.20
2018-12-15T00:33:20.996Z,40.87
2018-12-15T00:35:49.440Z,41.30
2018-12-15T00:38:18.393Z,42.40
2018-12-15T00:40:46.812Z,39.63
2018-12-15T00:43:15.926Z,40.23
2018-12-15T00:45:44.352Z,42.00
2018-12-15T00:48:12.781Z,40.33
2018-12-15T00:50:41.252Z,38.90
2018-12-15T00:53:09.904Z,41.53
2018-12-15T00:55:38.306Z,38.80
2018-12-15T00:58:06.796Z,40.27
2018-12-15T01:00:35.286Z,40.10
2018-12-15T01:03:03.745Z,41.77
2018-12-15T01:05:32.246Z,43.87
2018-12-15T01:08:00.633Z,42.50
2018-12-15T01:10:29.059Z,43.03
2018-12-15T01:12:57.694Z,41.67
2018-12-15T01:15:31.551Z,49.10
2018-12-15T01:17:59.959Z,43.37
2018-12-15T01:20:28.365Z,42.73
2018-12-15T01:22:56.835Z,39.73
2018-12-15T01:25:25.337Z,43.37
2018-12-15T01:27:53.800Z,41.17
2018-12-15T01:30:22.204Z,41.33
2018-12-15T01:32:50.616Z,42.47
2018-12-15T01:35:19.032Z,39.53
2018-12-15T01:37:47.418Z,41.33
2018-12-15T01:40:15.894Z,38.60
2018-12-15T01:42:44.432Z,42.03
2018-12-15T01:45:12.859Z,40.37
2018-12-15T01:47:41.326Z,41.50
2018-12-15T01:50:09.726Z,40.50
2018-12-15T01:52:38.127Z,44.13
2018-12-15T01:55:06.586Z,42.00
2018-12-15T01:57:34.999Z,41.97
2018-12-15T02:00:04.117Z,39.47
2018-12-15T02:02:32.821Z,41.60
2018-12-15T02:05:01.221Z,39.17
2018-12-15T02:07:29.627Z,41.63
2018-12-15T02:09:58.082Z,41.70
2018-12-15T02:12:26.936Z,44.87
2018-12-15T02:14:55.341Z,43.07
2018-12-15T02:17:23.743Z,45.73
2018-12-15T02:19:52.189Z,42.53
2018-12-15T02:22:20.719Z,43.13
2018-12-15T02:24:49.369Z,44.73
2018-12-15T02:27:17.775Z,45.07
2018-12-15T02:29:46.205Z,43.63
2018-12-15T02:32:14.609Z,47.10
2018-12-15T02:34:43.029Z,48.47
2018-12-15T02:37:11.431Z,49.07
2018-12-15T02:39:39.822Z,48.43
2018-12-15T02:42:08.233Z,44.03
2018-12-15T02:44:36.629Z,47.30
2018-12-15T02:47:05.091Z,46.90
2018-12-15T02:49:33.500Z,47.03
2018-12-15T02:52:01.907Z,49.03
2018-12-15T02:54:30.304Z,48.60
2018-12-15T02:56:58.752Z,48.60
2018-12-15T02:59:27.187Z,49.13
2018-12-15T03:01:55.660Z,46.37
2018-12-15T03:04:24.118Z,53.00
2018-12-15T03:06:52.539Z,48.13
2018-12-15T03:09:20.934Z,48.53
2018-12-15T03:11:49.389Z,54.73
2018-12-15T03:14:17.857Z,52.87
2018-12-15T03:17:05.638Z,57.07
2018-12-15T03:19:34.088Z,53.57
2018-12-15T03:22:02.553Z,47.60
2018-12-15T03:24:30.964Z,51.90
2018-12-15T03:26:59.424Z,53.30
2018-12-15T03:29:27.905Z,52.43
2018-12-15T03:31:56.341Z,52.57
2018-12-15T03:34:24.750Z,56.10
2018-12-15T03:36:53.416Z,53.13
2018-12-15T03:39:21.824Z,51.87
2018-12-15T03:41:50.934Z,57.23
2018-12-15T03:44:19.318Z,52.70
2018-12-15T03:46:47.735Z,55.53
2018-12-15T03:49:16.145Z,50.67
2018-12-15T03:51:44.570Z,55.47
2018-12-15T03:54:13.037Z,53.70
2018-12-15T03:56:41.427Z,52.00
2018-12-15T03:59:09.839Z,54.23
2018-12-15T04:01:38.220Z,56.37
2018-12-15T04:04:06.658Z,51.27
2018-12-15T04:06:35.294Z,56.67
2018-12-15T04:09:05.248Z,56.40
2018-12-15T04:11:33.719Z,56.47
2018-12-15T04:14:02.132Z,51.73
2018-12-15T04:16:30.577Z,54.07
2018-12-15T04:18:59.075Z,50.87
2018-12-15T04:21:27.464Z,46.80
2018-12-15T04:23:55.946Z,50.90
2018-12-15T04:26:24.583Z,55.27
2018-12-15T04:28:53.010Z,52.80
2018-12-15T04:31:21.407Z,52.27
2018-12-15T04:33:49.824Z,52.80
2018-12-15T04:36:19.053Z,49.47
2018-12-15T04:38:48.038Z,50.10
2018-12-15T04:41:16.436Z,50.33
2018-12-15T04:43:45.019Z,51.10
2018-12-15T04:46:13.414Z,49.87
2018-12-15T04:48:41.824Z,53.30
2018-12-15T04:51:10.226Z,47.90
2018-12-15T04:53:38.635Z,51.23
2018-12-15T04:56:07.031Z,53.67
2018-12-15T04:58:35.439Z,52.67
2018-12-15T05:01:03.827Z,49.03
2018-12-15T05:03:32.316Z,47.40
2018-12-15T05:06:00.706Z,47.97
2018-12-15T05:08:29.100Z,48.13
2018-12-15T05:10:57.492Z,50.47
2018-12-15T05:13:25.918Z,47.83
2018-12-15T05:15:54.307Z,45.90
2018-12-15T05:18:22.835Z,48.97
2018-12-15T05:20:51.296Z,46.37
2018-12-15T05:23:19.699Z,47.50
2018-12-15T05:25:48.218Z,45.13
2018-12-15T05:28:16.813Z,47.10
2018-12-15T05:30:45.214Z,44.53
2018-12-15T05:33:13.699Z,45.10
2018-12-15T05:35:42.101Z,43.73
2018-12-15T05:38:10.504Z,45.50
2018-12-15T05:40:38.939Z,44.33
2018-12-15T05:43:07.335Z,44.50
2018-12-15T05:45:35.769Z,40.93
2018-12-15T05:48:04.293Z,39.83
2018-12-15T05:50:32.771Z,43.83
2018-12-15T05:53:01.190Z,39.93
2018-12-15T05:55:29.638Z,41.57
2018-12-15T05:57:58.112Z,41.53
2018-12-15T06:00:26.564Z,41.10
2018-12-15T06:02:55.058Z,42.33
2018-12-15T06:05:23.546Z,40.43
2018-12-15T06:07:51.942Z,37.73
2018-12-15T06:10:20.408Z,36.33
2018-12-15T06:12:48.812Z,34.47
2018-12-15T06:15:17.280Z,34.63
2018-12-15T06:17:45.750Z,36.47
2018-12-15T06:20:14.152Z,37.30
2018-12-15T06:22:42.545Z,33.73
2018-12-15T06:25:10.954Z,36.73
2018-12-15T06:27:39.347Z,32.73
2018-12-15T06:30:08.670Z,32.33
2018-12-15T06:32:37.057Z,35.47
2018-12-15T06:35:06.554Z,32.63
2018-12-15T06:37:34.934Z,35.27
2018-12-15T06:40:04.544Z,32.47
2018-12-15T06:42:33.338Z,34.23
2018-12-15T06:45:01.800Z,33.33
2018-12-15T06:47:30.196Z,34.00
2018-12-15T06:49:58.607Z,29.87
2018-12-15T06:52:27.001Z,31.27
2018-12-15T06:54:55.669Z,29.93
2018-12-15T06:57:24.062Z,30.83
2018-12-15T06:59:52.508Z,31.30
2018-12-15T07:02:20.965Z,32.63
2018-12-15T07:04:49.514Z,27.90
2018-12-15T07:07:17.910Z,30.77
2018-12-15T07:09:46.379Z,31.33
2018-12-15T07:12:14.872Z,30.77
2018-12-15T07:14:43.270Z,29.27
2018-12-15T07:17:11.683Z,33.10
2018-12-15T07:19:40.089Z,27.50
2018-12-15T07:22:08.535Z,30.53
2018-12-15T07:24:36.972Z,32.70
2018-12-15T07:27:05.453Z,29.67
2018-12-15T07:29:33.851Z,29.70
2018-12-15T07:32:02.290Z,28.67
2018-12-15T07:34:30.749Z,29.63
2018-12-15T07:36:59.154Z,31.83
2018-12-15T07:39:28.538Z,34.47
2018-12-15T07:41:57.230Z,29.87
2018-12-15T07:44:25.628Z,29.53
2018-12-15T07:46:54.046Z,28.83
2018-12-15T07:49:22.441Z,28.33
2018-12-15T07:51:50.863Z,32.13
2018-12-15T07:54:19.391Z,31.17
2018-12-15T07:56:47.787Z,33.57
2018-12-15T07:59:16.190Z,29.87
2018-12-15T08:01:44.613Z,31.93
2018-12-15T08:04:13.015Z,31.77
2018-12-15T08:06:41.483Z,31.63
2018-12-15T08:09:12.334Z,33.10
2018-12-15T08:11:46.209Z,32.30
2018-12-15T08:14:14.893Z,31.93
2018-12-15T08:16:43.313Z,29.77
2018-12-15T08:19:11.717Z,32.27
2018-12-15T08:21:40.242Z,29.73
2018-12-15T08:24:08.823Z,31.07
2018-12-15T08:26:37.434Z,28.67
2018-12-15T08:29:05.933Z,30.67
2018-12-15T08:31:34.487Z,29.93
2018-12-15T08:34:02.890Z,28.00
2018-12-15T08:36:31.292Z,26.70
2018-12-15T08:38:59.793Z,31.77
2018-12-15T08:41:28.294Z,27.93
2018-12-15T08:43:56.736Z,30.57
2018-12-15T08:46:25.136Z,30.63
2018-12-15T08:48:53.664Z,28.67
2018-12-15T08:51:22.220Z,32.43
2018-12-15T08:53:50.709Z,32.47
2018-12-15T08:56:19.184Z,30.10
2018-12-15T08:58:47.663Z,28.97
2018-12-15T09:01:16.270Z,32.83
2018-12-15T09:03:44.664Z,29.90
2018-12-15T09:06:13.336Z,32.77
2018-12-15T09:08:41.806Z,29.47
2018-12-15T09:11:10.295Z,31.87
2018-12-15T09:13:38.713Z,29.87
2018-12-15T09:16:07.242Z,29.90
2018-12-15T09:18:35.726Z,31.83
2018-12-15T09:21:04.323Z,28.53
2018-12-15T09:23:33.018Z,28.73
2018-12-15T09:26:01.660Z,32.23
2018-12-15T09:28:30.112Z,29.53
2018-12-15T09:30:58.514Z,34.47
2018-12-15T09:33:27.040Z,27.20
2018-12-15T09:35:55.428Z,29.23
2018-12-15T09:38:23.946Z,29.67
2018-12-15T09:40:52.386Z,29.83
2018-12-15T09:43:20.937Z,30.50
2018-12-15T09:45:49.523Z,31.60
2018-12-15T09:48:17.987Z,30.43
2018-12-15T09:50:46.387Z,27.10
2018-12-15T09:53:14.848Z,27.37
2018-12-15T09:55:43.306Z,33.33
2018-12-15T09:58:11.688Z,32.77
2018-12-15T10:00:40.211Z,27.80
2018-12-15T10:03:08.783Z,29.43
2018-12-15T10:05:37.311Z,29.47
2018-12-15T10:08:05.769Z,30.67
2018-12-15T10:10:34.226Z,29.87
2018-12-15T10:13:02.636Z,29.17
2018-12-15T10:15:31.048Z,30.90
2018-12-15T10:17:59.463Z,27.60
2018-12-15T10:20:27.977Z,33.57
2018-12-15T10:22:56.360Z,32.27
2018-12-15T10:25:24.812Z,34.80
2018-12-15T10:27:53.250Z,30.90
2018-12-15T10:30:27.162Z,36.77
2018-12-15T10:32:55.869Z,30.73
2018-12-15T10:35:24.329Z,30.07
2018-12-15T10:37:52.730Z,34.10
2018-12-15T10:40:21.130Z,31.53
2018-12-15T10:42:49.538Z,30.70
2018-12-15T10:45:17.948Z,29.70
2018-12-15T10:47:46.471Z,30.00
2018-12-15T10:50:14.939Z,33.40
2018-12-15T10:52:43.344Z,32.47
2018-12-15T10:55:11.911Z,31.73
2018-12-15T10:57:40.314Z,31.87
2018-12-15T11:00:11.173Z,31.80
2018-12-15T11:02:39.569Z,32.77
2018-12-15T11:05:08.104Z,31.50
2018-12-15T11:07:36.489Z,31.90
2018-12-15T11:10:06.993Z,31.73
2018-12-15T11:12:35.496Z,31.33
2018-12-15T11:15:04.379Z,33.00
2018-12-15T11:17:32.781Z,32.43
2018-12-15T11:20:01.213Z,37.87
2018-12-15T11:22:29.885Z,28.43
2018-12-15T11:24:58.375Z,30.53
2018-12-15T11:27:26.787Z,33.90
2018-12-15T11:29:55.242Z,32.97
2018-12-15T11:32:23.739Z,30.63
2018-12-15T11:34:52.162Z,30.30
2018-12-15T11:37:20.614Z,31.33
2018-12-15T11:39:49.042Z,29.43
2018-12-15T11:42:17.444Z,31.57
2018-12-15T11:44:45.851Z,30.27
2018-12-15T11:47:14.422Z,30.87
2018-12-15T11:49:43.745Z,31.33
2018-12-15T11:52:12.539Z,31.70
2018-12-15T11:54:40.964Z,29.03
2018-12-15T11:57:09.490Z,32.00
2018-12-15T11:59:37.879Z,31.13
2018-12-15T12:02:06.301Z,35.80
2018-12-15T12:04:34.954Z,32.80
2018-12-15T12:07:03.502Z,32.57
2018-12-15T12:09:31.969Z,38.03
2018-12-15T12:12:00.376Z,31.97
2018-12-15T12:14:28.829Z,30.87
2018-12-15T12:16:57.407Z,31.60
2018-12-15T12:19:25.895Z,28.77
2018-12-15T12:21:54.347Z,33.83
2018-12-15T12:24:22.751Z,31.57
2018-12-15T12:26:51.153Z,32.90
2018-12-15T12:29:19.644Z,31.23
2018-12-15T12:31:48.192Z,30.27
2018-12-15T12:34:16.681Z,32.27
2018-12-15T12:36:45.325Z,40.17
2018-12-15T12:39:13.757Z,30.47
2018-12-15T12:41:42.175Z,31.37
2018-12-15T12:44:10.865Z,32.10
2018-12-15T12:46:39.444Z,32.60
2018-12-15T12:49:07.955Z,35.07
2018-12-15T12:51:36.380Z,32.07
2018-12-15T12:54:04.987Z,32.00
2018-12-15T12:56:33.544Z,34.53
2018-12-15T12:59:01.984Z,31.07
2018-12-15T13:01:30.420Z,29.93
2018-12-15T13:03:58.889Z,35.37
2018-12-15T13:06:27.661Z,35.17
2018-12-15T13:08:56.111Z,35.03
2018-12-15T13:11:24.632Z,35.97
2018-12-15T13:13:53.180Z,32.07
2018-12-15T13:16:21.641Z,34.10
2018-12-15T13:18:50.075Z,32.93
2018-12-15T13:21:18.488Z,33.47
2018-12-15T13:23:47.112Z,35.03
2018-12-15T13:26:15.585Z,31.80
2018-12-15T13:28:44.058Z,34.37
2018-12-15T13:31:12.478Z,37.37
2018-12-15T13:33:44.204Z,33.07
2018-12-15T13:36:13.526Z,35.97
2018-12-15T13:38:42.273Z,40.87
2018-12-15T13:41:10.734Z,37.57
2018-12-15T13:43:39.453Z,35.50
2018-12-15T13:46:07.884Z,35.47
2018-12-15T13:48:36.280Z,36.47
2018-12-15T13:51:04.836Z,38.63
2018-12-15T13:53:33.316Z,35.47
2018-12-15T13:56:01.769Z,34.73
2018-12-15T13:58:30.174Z,34.43
2018-12-15T14:00:58.572Z,36.53
2018-12-15T14:03:27.009Z,37.73
2018-12-15T14:05:55.534Z,35.90
2018-12-15T14:08:24.024Z,46.97
2018-12-15T14:10:52.426Z,38.03
2018-12-15T14:13:20.857Z,35.17
2018-12-15T14:15:49.236Z,36.33
2018-12-15T14:18:17.700Z,34.57
2018-12-15T14:20:46.117Z,34.90
2018-12-15T14:23:14.528Z,35.97
2018-12-15T14:25:42.942Z,38.63
2018-12-15T14:28:11.416Z,37.33
2018-12-15T14:30:39.914Z,36.17
2018-12-15T14:33:08.320Z,41.80
2018-12-15T14:35:36.749Z,39.23
2018-12-15T14:38:05.429Z,33.30
2018-12-15T14:40:33.937Z,36.33
2018-12-15T14:43:02.372Z,38.67
2018-12-15T14:45:30.767Z,36.57
2018-12-15T14:47:59.267Z,34.00
2018-12-15T14:50:29.121Z,38.20
2018-12-15T14:52:57.564Z,37.67
2018-12-15T14:55:25.963Z,35.60
2018-12-15T14:57:54.435Z,39.47
2018-12-15T15:00:22.881Z,36.57
2018-12-15T15:02:51.533Z,37.80
2018-12-15T15:05:19.995Z,36.70
2018-12-15T15:07:48.478Z,37.63
2018-12-15T15:10:17.035Z,37.07
2018-12-15T15:12:45.583Z,38.10
2018-12-15T15:15:14.035Z,53.00
2018-12-15T15:17:42.504Z,39.20
2018-12-15T15:20:11.215Z,42.10
2018-12-15T15:22:39.679Z,39.00
2018-12-15T15:25:08.237Z,37.87
2018-12-15T15:27:36.808Z,35.40
2018-12-15T15:30:06.699Z,37.97
2018-12-15T15:32:35.177Z,42.97
2018-12-15T15:35:04.746Z,40.13
2018-12-15T15:37:33.276Z,40.37
2018-12-15T15:40:01.841Z,35.07
2018-12-15T15:42:30.333Z,36.57
2018-12-15T15:44:58.964Z,43.27
2018-12-15T15:47:27.660Z,40.50
2018-12-15T15:49:56.179Z,38.57
2018-12-15T15:52:24.706Z,39.97
2018-12-15T15:54:53.197Z,35.77
2018-12-15T15:57:21.675Z,39.27
2018-12-15T15:59:50.156Z,39.13
2018-12-15T16:02:18.577Z,39.10
2018-12-15T16:04:47.102Z,39.20
2018-12-15T16:07:15.646Z,37.80
2018-12-15T16:09:45.040Z,37.53
2018-12-15T16:12:13.874Z,35.70
2018-12-15T16:14:42.370Z,37.13
2018-12-15T16:17:10.846Z,36.23
2018-12-15T16:19:39.334Z,35.07
2018-12-15T16:22:07.898Z,38.90
2018-12-15T16:24:36.430Z,39.13
2018-12-15T16:27:04.997Z,38.30
2018-12-15T16:29:33.546Z,37.00
2018-12-15T16:32:02.137Z,37.37
2018-12-15T16:34:30.636Z,36.57
2018-12-15T16:36:59.135Z,39.00
2018-12-15T16:39:27.548Z,33.40
2018-12-15T16:41:56.698Z,34.77
2018-12-15T16:44:25.399Z,37.40
2018-12-15T16:46:54.559Z,35.33
2018-12-15T16:49:22.953Z,38.40
2018-12-15T16:51:51.357Z,36.60
2018-12-15T16:54:19.789Z,41.13
2018-12-15T16:56:48.222Z,42.17
2018-12-15T16:59:16.649Z,38.30
2018-12-15T17:01:45.253Z,39.60
2018-12-15T17:04:13.641Z,42.17
2018-12-15T17:06:42.105Z,37.33
2018-12-15T17:09:10.653Z,43.40
2018-12-15T17:11:39.069Z,42.70
2018-12-15T17:14:07.520Z,37.93
2018-12-15T17:16:35.922Z,40.27
2018-12-15T17:19:04.382Z,39.30
2018-12-15T17:21:32.890Z,37.50
2018-12-15T17:24:01.375Z,38.20
2018-12-15T17:26:29.781Z,35.23
2018-12-15T17:28:58.183Z,41.20
2018-12-15T17:31:26.600Z,37.27
2018-12-15T17:33:55.040Z,37.83
2018-12-15T17:36:23.511Z,38.17
2018-12-15T17:38:51.909Z,40.47
2018-12-15T17:41:20.319Z,39.17
2018-12-15T17:43:48.781Z,40.33
2018-12-15T17:46:17.266Z,40.97
2018-12-15T17:48:45.661Z,38.33
2018-12-15T17:51:14.155Z,40.43
2018-12-15T17:53:42.556Z,37.63
2018-12-15T17:56:10.982Z,39.97
2018-12-15T17:58:39.372Z,39.90
2018-12-15T18:01:07.874Z,37.80
2018-12-15T18:03:36.272Z,40.70
2018-12-15T18:06:04.679Z,39.73
2018-12-15T18:08:33.131Z,37.87
2018-12-15T18:11:01.570Z,38.27
2018-12-15T18:13:30.087Z,38.03
2018-12-15T18:15:58.636Z,43.43
2018-12-15T18:18:27.050Z,40.63
2018-12-15T18:20:55.456Z,38.37
2018-12-15T18:23:23.906Z,39.73
2018-12-15T18:25:52.437Z,42.13
2018-12-15T18:28:20.900Z,39.53
2018-12-15T18:30:49.319Z,44.47
2018-12-15T18:33:17.728Z,42.80
2018-12-15T18:35:46.133Z,42.73
2018-12-15T18:38:14.543Z,42.10
2018-12-15T18:40:42.958Z,39.13
2018-12-15T18:43:11.414Z,41.33
2018-12-15T18:45:39.813Z,46.23
2018-12-15T18:48:08.275Z,38.80
2018-12-15T18:50:36.675Z,40.30
2018-12-15T18:53:05.123Z,41.73
2018-12-15T18:55:33.570Z,39.97
2018-12-15T18:58:02.008Z,40.20
2018-12-15T19:00:30.498Z,44.53
2018-12-15T19:02:58.953Z,43.23
2018-12-15T19:05:27.349Z,45.07
2018-12-15T19:07:56.017Z,42.43
2018-12-15T19:10:24.426Z,41.17
2018-12-15T19:12:52.901Z,41.33
2018-12-15T19:15:21.449Z,41.97
2018-12-15T19:17:49.869Z,39.23
2018-12-15T19:20:18.273Z,42.40
2018-12-15T19:22:46.701Z,43.07
2018-12-15T19:25:15.248Z,40.10
2018-12-15T19:27:43.647Z,41.73
2018-12-15T19:30:12.134Z,42.00
2018-12-15T19:32:40.528Z,44.20
2018-12-15T19:35:09.051Z,44.50
2018-12-15T19:37:37.452Z,42.57
2018-12-15T19:40:06.772Z,42.13
2018-12-15T19:42:35.178Z,42.87
2018-12-15T19:45:03.918Z,42.93
2018-12-15T19:47:32.370Z,42.80
2018-12-15T19:50:00.807Z,40.27
2018-12-15T19:52:29.378Z,42.97
2018-12-15T19:54:57.876Z,41.17
2018-12-15T19:57:26.360Z,46.80
2018-12-15T19:59:54.862Z,43.50
2018-12-15T20:02:23.310Z,43.50
2018-12-15T20:04:51.722Z,42.10
2018-12-15T20:07:20.177Z,43.00
2018-12-15T20:09:48.656Z,45.57
2018-12-15T20:12:17.052Z,43.73
2018-12-15T20:14:45.463Z,43.57
2018-12-15T20:17:13.874Z,39.63
2018-12-15T20:19:42.298Z,42.53
2018-12-15T20:22:10.717Z,44.97
2018-12-15T20:24:39.110Z,46.10
2018-12-15T20:27:07.606Z,42.60
2018-12-15T20:29:36.017Z,42.17
2018-12-15T20:32:04.476Z,42.33
2018-12-15T20:34:32.957Z,42.63
2018-12-15T20:37:01.359Z,37.07
2018-12-15T20:39:29.838Z,46.03
2018-12-15T20:41:58.313Z,40.97
2018-12-15T20:44:28.336Z,41.20
2018-12-15T20:46:57.230Z,44.07
2018-12-15T20:49:25.685Z,38.97
2018-12-15T20:51:55.424Z,42.80
2018-12-15T20:54:24.148Z,42.03
2018-12-15T20:56:52.617Z,43.13
2018-12-15T20:59:21.011Z,41.63
2018-12-15T21:01:49.428Z,42.53
2018-12-15T21:04:17.825Z,40.50
2018-12-15T21:06:46.333Z,45.93
2018-12-15T21:09:14.776Z,43.90
2018-12-15T21:11:43.271Z,44.17
2018-12-15T21:14:11.720Z,41.87
2018-12-15T21:16:40.196Z,42.20
2018-12-15T21:19:08.610Z,44.97
2018-12-15T21:21:37.324Z,44.27
2018-12-15T21:24:05.767Z,40.97
2018-12-15T21:26:34.193Z,40.43
2018-12-15T21:29:02.572Z,44.63
2018-12-15T21:31:31.089Z,41.40
2018-12-15T21:33:59.531Z,42.13
2018-12-15T21:36:27.996Z,42.77
2018-12-15T21:38:56.406Z,41.03
2018-12-15T21:41:24.918Z,46.10
2018-12-15T21:43:53.312Z,42.53
2018-12-15T21:46:21.800Z,46.50
2018-12-15T21:48:50.186Z,44.93
2018-12-15T21:51:18.630Z,48.00
2018-12-15T21:53:47.024Z,44.57
2018-12-15T21:56:15.447Z,46.27
2018-12-15T21:58:43.870Z,41.80
2018-12-15T22:01:12.585Z,41.37
2018-12-15T22:03:40.988Z,41.83
2018-12-15T22:06:09.414Z,42.13
2018-12-15T22:08:37.879Z,43.70
2018-12-15T22:11:06.266Z,44.53
2018-12-15T22:13:34.674Z,42.73
2018-12-15T22:16:03.163Z,43.13
2018-12-15T22:18:31.553Z,42.00
2018-12-15T22:21:00.229Z,46.73
2018-12-15T22:23:29.617Z,45.67
2018-12-15T22:25:58.178Z,44.10
2018-12-15T22:28:26.608Z,41.53
2018-12-15T22:30:55.006Z,46.23
2018-12-15T22:33:23.416Z,41.70
2018-12-15T22:35:51.830Z,41.03
2018-12-15T22:38:20.294Z,44.33
2018-12-15T22:40:48.687Z,43.60
2018-12-15T22:43:17.084Z,46.37
2018-12-15T22:45:45.620Z,44.90
2018-12-15T22:48:14.038Z,43.40
2018-12-15T22:50:42.420Z,45.97
2018-12-15T22:53:10.877Z,40.57
2018-12-15T22:55:39.343Z,43.33
2018-12-15T22:58:07.827Z,42.40
2018-12-15T23:00:42.009Z,43.50
2018-12-15T23:03:10.423Z,41.93
2018-12-15T23:05:38.888Z,43.97
2018-12-15T23:08:07.375Z,50.40
2018-12-15T23:10:36.803Z,45.07
2018-12-15T23:13:05.366Z,45.50
2018-12-15T23:15:33.835Z,46.67
2018-12-15T23:18:02.357Z,44.90
2018-12-15T23:20:30.873Z,51.10
2018-12-15T23:22:59.287Z,43.37
2018-12-15T23:25:27.776Z,44.83
2018-12-15T23:27:56.183Z,46.00
2018-12-15T23:30:24.582Z,49.17
2018-12-15T23:32:52.990Z,45.00
2018-12-15T23:35:21.385Z,46.20
2018-12-15T23:37:49.796Z,49.40
2018-12-15T23:40:18.199Z,46.37
2018-12-15T23:42:46.651Z,45.20
2018-12-15T23:45:15.109Z,46.20
2018-12-15T23:47:43.524Z,50.07
2018-12-15T23:50:11.961Z,45.30
2018-12-15T23:52:40.377Z,47.30
2018-12-15T23:55:08.833Z,49.87
2018-12-15T23:57:37.315Z,46.17
